This is the latest recevied weather packets stored in our database for station/object N4JTC. If no packets are shown the sender has not sent any weather packets the latest 1 day(s).
| Time | Temp. | Humidity | Pressure | Rain* | Wind** | Luminosity | Snow |
|---|---|---|---|---|---|---|---|
| 1777987503 | 20.56° C | 77% | 1016.9 hPa | 0 mm | 2.24 m/s, 149° | 326 W/m² | - |
| 1777987203 | 20° C | 78% | 1016.6 hPa | 0 mm | 1.34 m/s, 60° | 216 W/m² | - |
| 1777986902 | 20° C | 80% | 1016.8 hPa | 0 mm | 0 m/s | 231 W/m² | - |
| 1777986603 | 19.44° C | 80% | 1016.6 hPa | 0 mm | 0.45 m/s, 53° | 193 W/m² | - |
| 1777986303 | 18.89° C | 80% | 1016.5 hPa | 0 mm | 1.34 m/s, 77° | 163 W/m² | - |
| 1777986002 | 18.89° C | 82% | 1016.4 hPa | 0 mm | 0 m/s | 172 W/m² | - |
| 1777985703 | 18.33° C | 81% | 1016.6 hPa | 0 mm | 0.45 m/s, 54° | 207 W/m² | - |
| 1777985403 | 17.78° C | 83% | 1016.7 hPa | 0 mm | 0.89 m/s, 40° | 228 W/m² | - |
| 1777985103 | 18.33° C | 82% | 1016.6 hPa | 0 mm | 0.89 m/s, 35° | 147 W/m² | - |
| 1777984503 | 18.33° C | 81% | 1016.8 hPa | 0 mm | 0.89 m/s, 42° | 156 W/m² | - |
| 1777984203 | 18.33° C | 82% | 1016.7 hPa | 0 mm | 0 m/s | 154 W/m² | - |
| 1777983903 | 17.78° C | 83% | 1016.4 hPa | 0 mm | 0.45 m/s, 44° | 140 W/m² | - |
| 1777983603 | 17.78° C | 84% | 1016.5 hPa | 0 mm | 0 m/s | 124 W/m² | - |
| 1777983303 | 17.22° C | 84% | 1016.7 hPa | 0 mm | 0.89 m/s, 68° | 112 W/m² | - |
| 1777983003 | 16.67° C | 84% | 1016.7 hPa | 0 mm | 1.34 m/s, 51° | 87 W/m² | - |
| 1777982703 | 16.11° C | 86% | 1016.7 hPa | 0 mm | 0 m/s | 82 W/m² | - |
| 1777982403 | 16.11° C | 86% | 1016.4 hPa | 0 mm | 0.89 m/s, 33° | 83 W/m² | - |
| 1777982103 | 15.56° C | 87% | 1016.3 hPa | 0 mm | 1.34 m/s, 61° | 72 W/m² | - |
| 1777981502 | 15° C | 87% | 1016.3 hPa | 0 mm | 0.89 m/s, 48° | 56 W/m² | - |
| 1777981203 | 15° C | 88% | 1016.2 hPa | 0 mm | 0.45 m/s, 57° | 46 W/m² | - |
| 1777980903 | 15° C | 88% | 1016.2 hPa | 0 mm | 0.89 m/s, 34° | 36 W/m² | - |
| 1777980603 | 15° C | 88% | 1016.3 hPa | 0 mm | 0.89 m/s, 44° | 29 W/m² | - |
| 1777980303 | 15° C | 88% | 1016.2 hPa | 0 mm | 0.89 m/s, 50° | 24 W/m² | - |
| 1777979703 | 14.44° C | 89% | 1015.9 hPa | 0 mm | 0.45 m/s, 56° | 14 W/m² | - |
| 1777979103 | 14.44° C | 90% | 1015.9 hPa | 0 mm | 0.45 m/s, 40° | 6 W/m² | - |
* Rain latest hour (hover to see other rain measurements)
** Current wind speed in m/s (hover to see current wind gust speed)